Time;durP1;ratioP1;P1;durP2;ratioP2;P2;SDS_P1;SDS_P2;PMS_P1;PMS_P2;Temp;Humidity;BMP_temperature;BMP_pressure;BME280_temperature;BME280_humidity;BME280_pressure;Samples;Min_cycle;Max_cycle;Signal;HPM_P1;HPM_P2
2023/01/09 00:01:16;;;;;;;39.10;22.30;;;5.60;99.90;;;;;;4973407;28;20071;-90
2023/01/09 00:03:42;;;;;;;76.13;33.40;;;5.60;99.90;;;;;;4959886;28;20031;-90
2023/01/09 00:06:07;;;;;;;66.38;29.35;;;5.60;99.90;;;;;;4959616;28;20034;-91
2023/01/09 00:08:33;;;;;;;49.97;25.70;;;5.60;99.90;;;;;;4976343;28;20042;-89
2023/01/09 00:10:59;;;;;;;80.07;33.50;;;5.60;99.90;;;;;;4958577;28;20027;-90
2023/01/09 00:13:24;;;;;;;58.40;27.60;;;5.60;99.90;;;;;;5059896;28;20034;-90
2023/01/09 00:15:50;;;;;;;75.65;26.40;;;5.60;99.90;;;;;;5059518;28;20050;-89
2023/01/09 00:18:16;;;;;;;80.35;30.27;;;5.70;99.90;;;;;;5077173;28;20038;-90
2023/01/09 00:20:41;;;;;;;56.97;27.40;;;5.70;99.90;;;;;;4974908;28;20121;-91
2023/01/09 00:23:07;;;;;;;48.92;24.98;;;5.70;99.90;;;;;;5059273;28;20104;-90
2023/01/09 00:25:33;;;;;;;106.40;29.40;;;5.70;99.90;;;;;;4974964;28;20035;-90
2023/01/09 00:27:59;;;;;;;161.07;30.65;;;5.70;99.90;;;;;;4974658;28;20043;-90
2023/01/09 00:30:25;;;;;;;42.33;20.95;;;5.70;99.90;;;;;;5060350;28;20052;-90
2023/01/09 00:32:50;;;;;;;46.72;24.95;;;5.70;99.90;;;;;;5059319;28;20023;-90
2023/01/09 00:35:17;;;;;;;41.30;22.85;;;5.70;99.90;;;;;;5075709;28;20026;-91
2023/01/09 00:37:43;;;;;;;47.58;25.92;;;5.70;99.90;;;;;;5074925;28;20031;-91
2023/01/09 00:40:09;;;;;;;171.90;32.92;;;5.70;99.90;;;;;;4974268;28;20371;-91
2023/01/09 00:42:35;;;;;;;62.92;29.40;;;5.70;99.90;;;;;;5058389;28;20035;-92
2023/01/09 00:45:08;;;;;;;92.28;30.30;;;5.70;99.90;;;;;;5058586;28;20031;-91
2023/01/09 00:47:44;;;;;;;203.32;36.40;;;5.70;99.90;;;;;;5058023;28;20041;-91
2023/01/09 00:50:20;;;;;;;84.53;31.63;;;5.80;99.90;;;;;;4973319;28;20039;-90
2023/01/09 00:52:47;;;;;;;53.90;27.45;;;5.70;99.90;;;;;;4973567;28;20122;-91
2023/01/09 00:55:14;;;;;;;49.92;26.40;;;5.70;99.90;;;;;;4974764;28;20026;-91
2023/01/09 00:57:40;;;;;;;56.80;26.85;;;5.70;99.90;;;;;;4973564;28;20042;-92
2023/01/09 01:00:07;;;;;;;54.25;26.42;;;5.70;99.90;;;;;;5057783;28;20474;-91
2023/01/09 01:02:33;;;;;;;52.67;25.63;;;5.70;99.90;;;;;;4973195;28;20061;-92
2023/01/09 01:07:43;;;;;;;225.30;37.90;;;5.80;99.90;;;;;;4973648;28;20050;-91
2023/01/09 01:10:20;;;;;;;79.18;27.80;;;5.70;99.90;;;;;;4974538;28;20027;-91
2023/01/09 01:12:47;;;;;;;55.83;26.58;;;5.70;99.90;;;;;;4972262;28;20129;-90
2023/01/09 01:15:13;;;;;;;59.80;25.67;;;5.70;99.90;;;;;;4973090;28;20458;-90
2023/01/09 01:17:40;;;;;;;52.97;24.95;;;5.70;99.90;;;;;;5057890;28;20069;-90
2023/01/09 01:20:09;;;;;;;53.75;25.65;;;5.70;99.90;;;;;;4972971;28;20035;-91
2023/01/09 01:22:35;;;;;;;54.95;24.50;;;5.70;99.90;;;;;;4973777;28;20030;-90
2023/01/09 01:25:02;;;;;;;55.47;26.13;;;5.70;99.90;;;;;;4972564;28;20834;-91
2023/01/09 01:27:28;;;;;;;51.30;25.73;;;5.80;99.90;;;;;;4972908;28;20090;-91
2023/01/09 01:29:54;;;;;;;61.13;26.65;;;5.70;99.90;;;;;;4972659;28;20118;-91
2023/01/09 01:32:19;;;;;;;44.80;22.77;;;5.70;99.90;;;;;;5074501;28;20027;-91
2023/01/09 01:34:45;;;;;;;50.88;23.90;;;5.70;99.90;;;;;;5057326;28;20545;-91
2023/01/09 01:37:11;;;;;;;45.67;23.58;;;5.70;99.90;;;;;;4972646;28;20398;-90
2023/01/09 01:39:36;;;;;;;50.30;23.88;;;5.70;99.90;;;;;;5057321;28;20057;-91
2023/01/09 01:42:03;;;;;;;51.80;25.40;;;5.70;99.90;;;;;;5056865;28;20030;-91
2023/01/09 01:44:56;;;;;;;59.53;25.80;;;5.80;99.90;;;;;;4972699;28;20037;-91
2023/01/09 01:47:27;;;;;;;58.65;27.13;;;5.70;99.90;;;;;;4972868;28;20042;-92
2023/01/09 01:49:53;;;;;;;49.58;27.25;;;5.70;99.90;;;;;;5057091;28;20134;-91
2023/01/09 01:52:20;;;;;;;48.97;25.52;;;5.70;99.90;;;;;;4973213;28;20027;-92
2023/01/09 01:54:47;;;;;;;42.40;22.55;;;5.70;99.90;;;;;;4973110;28;20023;-92
2023/01/09 01:57:13;;;;;;;40.38;19.27;;;5.70;99.90;;;;;;5057781;28;20030;-91
2023/01/09 01:59:48;;;;;;;32.95;18.35;;;5.70;99.90;;;;;;5057302;28;20042;-91
2023/01/09 02:02:19;;;;;;;28.02;16.10;;;5.70;99.90;;;;;;4972846;28;20502;-91
2023/01/09 02:04:45;;;;;;;27.42;14.70;;;5.70;99.90;;;;;;4972802;28;20124;-91
2023/01/09 02:07:11;;;;;;;29.67;15.27;;;5.70;99.90;;;;;;4972432;28;20130;-92
2023/01/09 02:09:39;;;;;;;25.80;13.75;;;5.70;99.90;;;;;;5074306;28;20054;-92
2023/01/09 02:12:25;;;;;;;33.17;14.32;;;5.80;99.90;;;;;;4972447;28;20038;-92
2023/01/09 02:15:06;;;;;;;23.58;12.40;;;5.80;99.90;;;;;;5057144;28;20027;-92
2023/01/09 02:17:31;;;;;;;21.98;9.63;;;5.70;99.90;;;;;;5056784;28;20374;-91
2023/01/09 02:20:31;;;;;;;16.30;10.52;;;5.70;99.90;;;;;;5073743;28;20097;-93
2023/01/09 02:23:25;;;;;;;19.20;10.15;;;5.70;99.90;;;;;;4973544;28;20054;-93
2023/01/09 02:26:03;;;;;;;19.60;10.70;;;5.70;99.90;;;;;;4984389;28;20078;-92
2023/01/09 02:28:43;;;;;;;19.15;10.50;;;5.70;99.90;;;;;;5056942;28;20030;-91
2023/01/09 02:31:26;;;;;;;22.92;11.43;;;5.70;99.90;;;;;;5073769;28;20035;-91
2023/01/09 02:33:56;;;;;;;18.10;10.15;;;5.70;99.90;;;;;;5057515;28;20027;-92
2023/01/09 02:37:15;;;;;;;20.90;10.52;;;5.70;99.90;;;;;;5057236;28;20034;-91
2023/01/09 02:40:00;;;;;;;19.75;10.05;;;5.70;99.90;;;;;;5036003;28;20068;-91
2023/01/09 02:42:26;;;;;;;15.55;9.40;;;5.70;99.90;;;;;;4972384;28;20353;-91
2023/01/09 02:44:52;;;;;;;17.17;10.13;;;5.70;99.90;;;;;;5073524;28;20027;-92
2023/01/09 02:47:18;;;;;;;21.15;10.50;;;5.70;99.90;;;;;;4973568;28;20031;-92
2023/01/09 02:49:58;;;;;;;15.60;9.25;;;5.80;99.90;;;;;;4972482;28;20065;-91
2023/01/09 02:52:36;;;;;;;13.43;8.25;;;5.70;99.90;;;;;;5056730;28;20038;-92
2023/01/09 02:55:10;;;;;;;14.10;8.15;;;5.70;99.90;;;;;;4972130;28;20027;-91
2023/01/09 02:58:13;;;;;;;15.60;8.55;;;5.70;99.90;;;;;;5073983;28;20031;-90
2023/01/09 03:01:03;;;;;;;13.73;8.90;;;5.70;99.90;;;;;;5074199;28;20129;-90
2023/01/09 03:04:06;;;;;;;16.50;9.77;;;5.70;99.90;;;;;;4973221;28;20038;-91
2023/01/09 03:07:06;;;;;;;15.05;9.73;;;5.70;99.90;;;;;;4973844;28;20035;-90
2023/01/09 03:09:36;;;;;;;13.23;9.38;;;5.70;99.90;;;;;;5057334;28;20119;-92
2023/01/09 03:12:05;;;;;;;16.25;10.40;;;5.70;99.90;;;;;;5073648;28;20129;-91
2023/01/09 03:14:32;;;;;;;15.88;10.93;;;5.70;99.90;;;;;;4973289;28;20501;-91
2023/01/09 03:17:05;;;;;;;16.92;12.02;;;5.70;99.90;;;;;;5057048;28;20039;-91
2023/01/09 03:19:32;;;;;;;22.90;14.07;;;5.80;99.90;;;;;;4972543;28;20034;-91
2023/01/09 03:21:59;;;;;;;25.30;13.93;;;5.70;99.90;;;;;;4972810;28;20023;-90
2023/01/09 03:24:24;;;;;;;26.25;14.80;;;5.80;99.90;;;;;;4972459;28;20031;-91
2023/01/09 03:26:53;;;;;;;29.42;16.00;;;5.80;99.90;;;;;;5056794;28;20561;-91
2023/01/09 03:29:18;;;;;;;23.67;14.48;;;5.70;99.90;;;;;;4972638;28;20060;-91
2023/01/09 03:31:44;;;;;;;33.80;18.80;;;5.80;99.90;;;;;;5056958;28;20035;-91
2023/01/09 03:34:10;;;;;;;24.23;15.18;;;5.70;99.90;;;;;;5056984;28;20038;-90
2023/01/09 03:36:36;;;;;;;23.52;12.68;;;5.70;99.90;;;;;;5059094;28;20053;-92
2023/01/09 03:39:01;;;;;;;20.83;14.55;;;5.80;99.90;;;;;;4975670;28;20033;-91
2023/01/09 03:41:27;;;;;;;14.60;10.10;;;5.80;99.90;;;;;;4975921;28;20466;-91
2023/01/09 03:43:52;;;;;;;11.75;7.93;;;5.70;99.90;;;;;;4975032;28;20109;-91
2023/01/09 03:46:18;;;;;;;14.55;8.23;;;5.60;99.90;;;;;;4975141;28;20030;-91
2023/01/09 03:48:44;;;;;;;9.80;6.80;;;5.50;99.90;;;;;;5076538;28;20035;-91
2023/01/09 03:51:09;;;;;;;9.93;6.50;;;5.50;99.90;;;;;;4974603;28;20474;-92
2023/01/09 03:53:35;;;;;;;12.10;6.75;;;5.50;99.90;;;;;;5059807;28;20037;-90
2023/01/09 03:56:01;;;;;;;8.30;5.80;;;5.50;99.90;;;;;;4974665;28;20031;-91
2023/01/09 03:58:26;;;;;;;11.13;7.13;;;5.50;99.90;;;;;;5059809;28;20121;-91
2023/01/09 04:00:58;;;;;;;8.50;5.63;;;5.50;99.90;;;;;;5059779;28;20549;-92
2023/01/09 04:03:24;;;;;;;12.05;6.35;;;5.50;99.90;;;;;;4974364;28;20045;-91
2023/01/09 04:05:49;;;;;;;6.55;4.78;;;5.50;99.90;;;;;;5059585;28;20039;-90
2023/01/09 04:08:16;;;;;;;10.15;5.88;;;5.40;99.90;;;;;;5059925;28;20065;-91
2023/01/09 04:10:49;;;;;;;9.98;5.47;;;5.30;99.90;;;;;;5059811;28;20030;-90
2023/01/09 04:13:15;;;;;;;5.40;4.13;;;5.30;99.90;;;;;;4974691;28;20117;-90
2023/01/09 04:15:42;;;;;;;8.02;4.63;;;5.30;99.90;;;;;;5076294;28;20076;-91
2023/01/09 04:18:08;;;;;;;5.40;4.25;;;5.30;99.90;;;;;;5059787;28;20121;-91
2023/01/09 04:20:34;;;;;;;5.95;3.55;;;5.20;99.90;;;;;;5059235;28;20074;-92
2023/01/09 04:23:00;;;;;;;3.88;3.25;;;5.20;99.90;;;;;;5059094;28;20460;-90
2023/01/09 04:25:26;;;;;;;5.35;3.85;;;5.20;99.90;;;;;;5076506;28;20053;-92
2023/01/09 04:27:52;;;;;;;7.30;3.33;;;5.10;99.90;;;;;;5059165;28;20445;-91
2023/01/09 04:30:18;;;;;;;6.72;3.90;;;5.10;99.90;;;;;;4974443;28;20060;-92
2023/01/09 04:32:43;;;;;;;4.97;3.95;;;5.10;99.90;;;;;;4974363;28;20039;-91
2023/01/09 04:35:09;;;;;;;5.90;4.32;;;5.10;99.90;;;;;;5059520;28;20031;-92
2023/01/09 04:37:35;;;;;;;10.00;4.45;;;5.10;99.90;;;;;;4975307;28;20095;-90
2023/01/09 04:40:06;;;;;;;6.38;4.68;;;5.10;99.90;;;;;;4976002;28;20109;-92
2023/01/09 04:42:32;;;;;;;;;;;5.10;99.90;;;;;;4975338;28;20035;-91
2023/01/09 04:44:58;;;;;;;8.32;5.63;;;5.10;99.90;;;;;;4974280;28;19912;-91
2023/01/09 04:47:24;;;;;;;10.73;5.10;;;5.20;99.90;;;;;;5075849;28;20379;-91
2023/01/09 04:49:49;;;;;;;10.07;5.78;;;5.10;99.90;;;;;;4974101;28;20038;-91
2023/01/09 04:52:15;;;;;;;8.88;5.03;;;5.10;99.90;;;;;;4973549;28;20041;-90
2023/01/09 04:54:41;;;;;;;9.43;6.00;;;5.00;99.90;;;;;;5059060;28;20027;-91
2023/01/09 04:57:06;;;;;;;9.30;5.50;;;5.00;99.90;;;;;;5058425;28;20027;-91
2023/01/09 04:59:32;;;;;;;7.80;5.07;;;5.00;99.90;;;;;;5058719;28;20067;-91
2023/01/09 05:01:58;;;;;;;7.28;4.68;;;4.90;99.90;;;;;;5058207;28;20034;-91
2023/01/09 05:04:24;;;;;;;9.05;4.80;;;4.90;99.90;;;;;;5058280;28;20482;-92
2023/01/09 05:06:50;;;;;;;7.05;4.68;;;4.90;99.90;;;;;;5057902;28;20053;-91
2023/01/09 05:09:16;;;;;;;7.78;4.85;;;4.80;99.90;;;;;;5074747;28;20513;-91
2023/01/09 05:11:42;;;;;;;9.45;5.18;;;4.80;99.90;;;;;;4973569;28;20042;-91
2023/01/09 05:14:08;;;;;;;7.78;4.80;;;4.80;99.90;;;;;;4973478;28;20402;-91
2023/01/09 05:16:35;;;;;;;6.75;4.95;;;4.80;99.90;;;;;;4973221;28;20367;-90
2023/01/09 05:22:23;;;;;;;7.35;4.40;;;4.70;99.90;;;;;;4973155;28;20034;-92
2023/01/09 05:24:49;;;;;;;8.77;4.47;;;4.70;99.90;;;;;;5058033;28;20076;-90
2023/01/09 05:27:14;;;;;;;6.78;4.47;;;4.70;99.90;;;;;;5058788;28;20043;-91
2023/01/09 05:30:12;;;;;;;6.75;4.38;;;4.70;99.90;;;;;;4973832;28;20084;-90
2023/01/09 05:32:38;;;;;;;8.45;4.53;;;4.60;99.90;;;;;;5058201;28;20042;-91
2023/01/09 05:35:04;;;;;;;9.15;5.38;;;4.70;99.90;;;;;;5057408;28;20030;-90
2023/01/09 05:37:29;;;;;;;8.15;4.93;;;4.60;99.90;;;;;;4973782;28;20033;-91
2023/01/09 05:39:55;;;;;;;9.70;5.22;;;4.60;99.90;;;;;;5074094;28;20023;-91
2023/01/09 05:42:20;;;;;;;11.40;7.13;;;4.60;99.90;;;;;;5074492;28;20088;-91
2023/01/09 05:44:46;;;;;;;13.30;8.15;;;4.60;99.90;;;;;;5057609;28;20035;-90
2023/01/09 05:47:12;;;;;;;12.13;7.88;;;4.50;99.90;;;;;;5057793;28;20081;-89
2023/01/09 05:49:37;;;;;;;37.55;18.67;;;4.50;99.90;;;;;;5074353;28;20457;-90
2023/01/09 05:52:03;;;;;;;26.73;13.90;;;4.40;99.90;;;;;;5077187;28;20401;-92
2023/01/09 05:54:29;;;;;;;19.92;11.13;;;4.40;99.90;;;;;;5074499;28;20069;-90
2023/01/09 05:56:55;;;;;;;13.23;10.05;;;4.40;99.90;;;;;;5057703;28;20031;-90
2023/01/09 05:59:21;;;;;;;17.98;10.18;;;4.40;99.90;;;;;;5057546;28;20027;-90
2023/01/09 06:01:46;;;;;;;14.52;10.70;;;4.40;99.90;;;;;;5057971;28;20035;-90
2023/01/09 06:04:12;;;;;;;23.13;11.18;;;4.40;99.90;;;;;;5056977;28;20533;-89
2023/01/09 06:06:39;;;;;;;15.07;9.55;;;4.40;99.90;;;;;;5058113;28;20471;-92
2023/01/09 06:09:05;;;;;;;18.23;10.02;;;4.30;99.90;;;;;;5074527;28;20049;-90
2023/01/09 06:11:34;;;;;;;15.50;9.60;;;4.30;99.90;;;;;;5057531;28;20035;-88
2023/01/09 06:14:00;;;;;;;21.10;10.15;;;4.20;99.90;;;;;;4972967;28;20413;-89
2023/01/09 06:16:26;;;;;;;13.90;10.13;;;4.30;99.90;;;;;;5057232;28;20035;-90
2023/01/09 06:18:52;;;;;;;15.40;9.85;;;4.10;99.90;;;;;;5074374;28;20035;-91
2023/01/09 06:21:18;;;;;;;16.55;9.32;;;4.10;99.90;;;;;;5074473;28;20035;-90
2023/01/09 06:23:43;;;;;;;15.88;9.80;;;4.10;99.90;;;;;;5057596;28;20046;-90
2023/01/09 06:26:09;;;;;;;19.00;11.77;;;4.00;99.90;;;;;;5056936;28;20113;-91
2023/01/09 06:28:35;;;;;;;16.88;10.70;;;4.10;99.90;;;;;;5056921;28;20038;-90
2023/01/09 06:31:00;;;;;;;23.73;11.57;;;4.10;99.90;;;;;;5057459;28;20045;-91
2023/01/09 06:33:26;;;;;;;20.67;11.38;;;4.10;99.90;;;;;;4972303;28;20027;-90
2023/01/09 06:35:52;;;;;;;25.60;12.10;;;4.10;99.90;;;;;;4972723;28;20042;-89
2023/01/09 06:38:18;;;;;;;22.35;13.60;;;4.10;99.90;;;;;;5057600;28;20390;-90
2023/01/09 06:40:44;;;;;;;20.92;12.68;;;4.00;99.90;;;;;;5057372;28;20058;-90
2023/01/09 06:43:09;;;;;;;24.15;13.75;;;4.10;99.90;;;;;;5057669;28;20035;-90
2023/01/09 06:45:35;;;;;;;25.40;13.18;;;4.10;99.90;;;;;;5057396;28;20049;-90
2023/01/09 06:48:00;;;;;;;24.23;13.60;;;4.10;99.90;;;;;;5057374;28;20035;-91
2023/01/09 06:50:26;;;;;;;24.98;15.20;;;4.10;99.90;;;;;;5056949;28;20023;-91
2023/01/09 06:52:52;;;;;;;22.50;13.60;;;4.00;99.90;;;;;;5057266;28;20382;-92
2023/01/09 06:55:17;;;;;;;30.50;13.65;;;4.00;99.90;;;;;;5074098;28;20524;-91
2023/01/09 06:57:43;;;;;;;41.08;13.80;;;4.00;99.90;;;;;;5057212;28;20069;-91
2023/01/09 07:00:09;;;;;;;33.00;11.77;;;4.00;99.90;;;;;;5074150;28;20027;-90
2023/01/09 07:02:35;;;;;;;23.17;11.23;;;4.00;99.90;;;;;;5058106;28;20035;-90
2023/01/09 07:05:01;;;;;;;26.17;10.90;;;4.00;99.90;;;;;;5057991;28;20534;-91
2023/01/09 07:07:27;;;;;;;26.75;13.02;;;4.00;99.90;;;;;;4972823;28;20027;-90
2023/01/09 07:09:52;;;;;;;27.30;9.35;;;3.90;99.90;;;;;;5058478;28;20401;-92
2023/01/09 07:12:18;;;;;;;21.35;7.75;;;3.90;99.90;;;;;;5061079;28;20102;-91
2023/01/09 07:14:44;;;;;;;20.92;9.07;;;3.90;99.90;;;;;;5077408;28;20055;-90
2023/01/09 07:17:12;;;;;;;24.13;8.52;;;3.90;99.90;;;;;;5064059;28;20034;-90
2023/01/09 07:19:39;;;;;;;20.50;8.05;;;3.80;99.90;;;;;;5062461;28;20440;-90
2023/01/09 07:22:04;;;;;;;25.08;8.05;;;3.90;99.90;;;;;;4975933;28;20035;-91
2023/01/09 07:24:30;;;;;;;18.42;6.32;;;3.90;99.90;;;;;;5061040;28;20085;-91
2023/01/09 07:26:56;;;;;;;17.58;6.90;;;3.90;99.90;;;;;;5061152;28;20042;-91
2023/01/09 07:29:21;;;;;;;25.20;7.03;;;3.80;99.90;;;;;;5061439;28;20031;-92
2023/01/09 07:31:47;;;;;;;18.48;6.18;;;3.90;99.90;;;;;;5060581;28;20394;-92
2023/01/09 07:34:13;;;;;;;16.95;5.70;;;3.80;99.90;;;;;;4975494;28;20489;-92
2023/01/09 07:36:39;;;;;;;18.65;5.72;;;3.90;99.90;;;;;;5061164;28;20099;-91
2023/01/09 07:39:04;;;;;;;13.98;5.47;;;3.80;99.90;;;;;;4975985;28;20027;-91
2023/01/09 07:41:30;;;;;;;12.40;4.93;;;3.80;99.90;;;;;;5061118;28;20035;-92
2023/01/09 07:47:44;;;;;;;18.67;4.90;;;3.80;99.90;;;;;;4977570;28;20037;-91
2023/01/09 07:50:10;;;;;;;12.95;5.78;;;3.80;99.90;;;;;;5060550;28;20113;-92
2023/01/09 07:52:35;;;;;;;21.35;6.07;;;3.80;99.90;;;;;;4975546;28;20031;-92
2023/01/09 07:55:01;;;;;;;13.60;4.82;;;3.70;99.90;;;;;;5059859;28;20035;-94
2023/01/09 07:57:28;;;;;;;21.67;6.55;;;3.80;99.90;;;;;;5077157;28;20027;-91
2023/01/09 07:59:54;;;;;;;15.43;7.65;;;3.80;99.90;;;;;;4975118;28;20034;-91
2023/01/09 08:02:20;;;;;;;18.67;7.78;;;3.80;99.90;;;;;;4974932;28;20101;-91
2023/01/09 08:04:45;;;;;;;19.15;7.65;;;3.80;99.90;;;;;;5060227;28;20038;-92
2023/01/09 08:07:11;;;;;;;21.35;7.97;;;3.80;99.90;;;;;;5061110;28;20554;-92
2023/01/09 08:09:37;;;;;;;29.20;11.02;;;3.80;99.90;;;;;;5077917;28;20031;-91
2023/01/09 08:12:03;;;;;;;14.77;7.65;;;3.80;99.90;;;;;;5059703;28;20115;-90
2023/01/09 08:14:29;;;;;;;16.00;7.22;;;3.80;99.90;;;;;;4974518;28;20110;-90
2023/01/09 08:16:55;;;;;;;20.23;8.00;;;3.80;99.90;;;;;;5059695;28;20474;-91
2023/01/09 08:19:22;;;;;;;18.80;9.43;;;3.80;99.90;;;;;;5059355;28;20073;-91
2023/01/09 08:21:48;;;;;;;20.52;7.15;;;3.80;99.90;;;;;;4974118;28;20030;-90
2023/01/09 08:24:14;;;;;;;21.80;8.07;;;3.80;99.90;;;;;;5059294;28;20066;-90
2023/01/09 08:26:40;;;;;;;12.43;6.80;;;3.90;99.90;;;;;;5059641;28;20034;-91
2023/01/09 08:29:12;;;;;;;14.95;4.80;;;3.90;99.90;;;;;;5059483;28;20035;-91
2023/01/09 08:31:38;;;;;;;14.02;5.03;;;3.90;99.90;;;;;;4973915;28;20039;-90
2023/01/09 08:34:03;;;;;;;18.15;5.18;;;3.80;99.90;;;;;;5059306;28;20046;-91
2023/01/09 08:36:29;;;;;;;13.70;5.15;;;3.90;99.90;;;;;;4974233;28;20027;-91
2023/01/09 08:38:55;;;;;;;14.18;3.72;;;3.90;99.90;;;;;;5075794;28;20030;-92
2023/01/09 08:47:04;;;;;;;11.38;3.47;;;3.90;99.90;;;;;;4973926;28;20064;-89
2023/01/09 08:49:30;;;;;;;21.03;6.00;;;3.90;99.90;;;;;;5075763;28;20072;-92
2023/01/09 08:51:56;;;;;;;17.85;4.07;;;3.90;99.90;;;;;;5058845;28;20035;-91
2023/01/09 08:54:22;;;;;;;16.25;3.53;;;4.00;99.90;;;;;;5076621;28;20088;-90
2023/01/09 08:56:47;;;;;;;36.13;5.60;;;3.90;99.90;;;;;;5060294;28;20080;-90
2023/01/09 08:59:14;;;;;;;15.13;3.17;;;4.00;99.90;;;;;;5060666;28;20034;-91
2023/01/09 09:01:40;;;;;;;14.65;2.92;;;4.00;99.90;;;;;;5062269;28;20046;-91
2023/01/09 09:04:06;;;;;;;18.83;3.35;;;4.00;99.90;;;;;;5060344;28;20039;-90
2023/01/09 09:06:32;;;;;;;14.68;2.90;;;4.00;99.90;;;;;;4973635;28;20066;-89
2023/01/09 09:09:02;;;;;;;9.27;3.00;;;4.00;99.90;;;;;;5058402;28;20502;-90
2023/01/09 09:11:32;;;;;;;7.47;2.75;;;4.00;99.90;;;;;;4973797;28;20045;-90
2023/01/09 09:13:58;;;;;;;14.27;3.00;;;4.00;99.90;;;;;;5059921;28;20037;-90
2023/01/09 09:16:25;;;;;;;29.73;3.72;;;4.10;99.90;;;;;;5060281;28;20089;-90
2023/01/09 09:18:51;;;;;;;11.40;3.15;;;4.10;99.90;;;;;;5058531;28;20169;-92
2023/01/09 09:21:16;;;;;;;18.65;3.15;;;4.10;99.90;;;;;;5075010;28;20038;-91
2023/01/09 09:23:43;;;;;;;15.57;3.33;;;4.20;99.90;;;;;;5075519;28;20027;-90
2023/01/09 09:26:09;;;;;;;26.63;4.25;;;4.20;99.90;;;;;;4973314;28;20042;-91
2023/01/09 09:28:35;;;;;;;11.90;2.63;;;4.30;99.90;;;;;;5074797;28;20042;-90
2023/01/09 09:31:13;;;;;;;10.75;2.00;;;4.30;99.90;;;;;;5057918;28;20031;-90
2023/01/09 09:33:38;;;;;;;16.02;3.05;;;4.40;99.90;;;;;;5060001;28;20027;-90
2023/01/09 09:36:04;;;;;;;9.10;2.38;;;4.40;99.90;;;;;;5057894;28;20478;-90
2023/01/09 09:38:30;;;;;;;8.55;2.10;;;4.30;99.90;;;;;;5057898;28;20031;-90
2023/01/09 09:41:06;;;;;;;11.82;2.25;;;4.20;99.90;;;;;;5074500;28;20031;-90
2023/01/09 09:47:08;;;;;;;9.20;2.08;;;4.30;99.90;;;;;;4973063;28;20034;-89
2023/01/09 09:50:11;;;;;;;9.55;3.13;;;4.40;99.90;;;;;;4975821;28;20038;-90
2023/01/09 09:53:01;;;;;;;6.15;2.70;;;4.40;99.90;;;;;;5057401;28;20034;-89
2023/01/09 09:59:00;;;;;;;5.75;1.70;;;4.60;99.90;;;;;;4972740;28;20084;-89
2023/01/09 10:01:41;;;;;;;9.65;1.95;;;4.60;99.90;;;;;;5057010;28;20030;-89
2023/01/09 10:04:13;;;;;;;7.80;1.70;;;4.60;99.90;;;;;;5074057;28;20555;-90
2023/01/09 10:06:44;;;;;;;9.80;3.00;;;4.60;99.90;;;;;;5056678;28;20031;-90
2023/01/09 10:09:34;;;;;;;11.18;2.17;;;4.70;99.90;;;;;;5056951;28;20643;-88
2023/01/09 10:12:08;;;;;;;8.90;1.75;;;4.70;99.90;;;;;;5057137;28;20038;-89
2023/01/09 10:14:34;;;;;;;20.55;4.15;;;4.70;99.90;;;;;;5074104;28;20041;-90
2023/01/09 10:17:21;;;;;;;12.20;2.47;;;4.60;99.90;;;;;;5056720;28;20113;-90
2023/01/09 10:19:50;;;;;;;5.50;2.40;;;4.60;99.90;;;;;;5057342;28;20035;-90
2023/01/09 10:22:15;;;;;;;6.80;2.13;;;4.60;99.90;;;;;;5057793;28;20031;-89
2023/01/09 10:25:05;;;;;;;11.32;3.10;;;4.70;99.90;;;;;;5073669;28;20396;-90
2023/01/09 10:28:05;;;;;;;9.98;1.90;;;4.60;99.90;;;;;;5056795;28;20035;-90
2023/01/09 10:30:53;;;;;;;6.50;2.20;;;4.50;99.90;;;;;;5057728;28;20047;-90
2023/01/09 10:33:52;;;;;;;4.45;1.80;;;4.60;99.90;;;;;;5056769;28;20065;-89
2023/01/09 10:36:27;;;;;;;13.27;2.28;;;4.70;99.90;;;;;;4972381;28;20026;-91
2023/01/09 10:38:56;;;;;;;7.47;3.33;;;4.80;99.90;;;;;;5056772;28;20069;-89
2023/01/09 10:41:33;;;;;;;10.65;2.25;;;4.90;99.90;;;;;;5056560;28;20501;-89
2023/01/09 10:44:25;;;;;;;6.28;1.58;;;4.90;99.90;;;;;;5056801;28;20061;-91
2023/01/09 10:46:54;;;;;;;8.93;1.13;;;4.90;99.90;;;;;;4972932;28;20039;-89
2023/01/09 10:49:21;;;;;;;6.50;1.60;;;5.00;99.90;;;;;;4971969;28;20034;-90
2023/01/09 10:51:49;;;;;;;8.40;2.00;;;5.00;99.90;;;;;;5056539;28;20039;-90
2023/01/09 10:54:22;;;;;;;5.90;1.60;;;5.00;99.90;;;;;;4972391;28;20110;-91
2023/01/09 10:56:55;;;;;;;10.07;2.58;;;5.00;99.90;;;;;;4972200;28;20031;-90
2023/01/09 10:59:23;;;;;;;14.13;3.55;;;5.00;99.90;;;;;;5056769;28;20130;-90
2023/01/09 11:01:49;;;;;;;6.93;2.83;;;5.00;99.90;;;;;;5057555;28;20189;-90
2023/01/09 11:04:24;;;;;;;5.50;1.80;;;5.00;99.90;;;;;;5057089;28;20031;-91
2023/01/09 11:07:03;;;;;;;8.15;3.45;;;5.00;99.90;;;;;;4971810;28;20035;-91
2023/01/09 11:09:56;;;;;;;5.80;1.77;;;5.00;99.90;;;;;;5058149;28;20057;-91
2023/01/09 11:12:31;;;;;;;10.05;3.22;;;5.10;99.90;;;;;;5056658;28;20137;-90
2023/01/09 11:15:15;;;;;;;11.13;2.90;;;5.30;99.90;;;;;;5056689;28;20557;-89
2023/01/09 11:17:42;;;;;;;9.90;2.13;;;5.30;99.90;;;;;;5056748;28;20027;-90
2023/01/09 11:20:22;;;;;;;5.13;2.90;;;5.20;99.90;;;;;;5073218;28;20027;-91
2023/01/09 11:22:54;;;;;;;11.10;2.70;;;5.10;99.90;;;;;;5056488;28;20547;-90
2023/01/09 11:25:21;;;;;;;;;;;5.00;99.90;;;;;;4971759;28;20039;-91
2023/01/09 11:28:04;;;;;;;4.43;1.50;;;4.90;99.90;;;;;;4971793;28;19955;-90
2023/01/09 11:30:33;;;;;;;5.55;1.30;;;4.70;99.90;;;;;;5056480;28;20148;-91
2023/01/09 11:32:59;;;;;;;6.88;2.10;;;4.70;99.90;;;;;;4971884;28;20053;-91
2023/01/09 11:35:31;;;;;;;11.38;1.50;;;4.70;99.90;;;;;;5056712;28;20037;-91
2023/01/09 11:38:11;;;;;;;4.25;2.65;;;4.60;99.90;;;;;;5056980;28;20562;-90
2023/01/09 11:40:48;;;;;;;9.55;2.97;;;4.60;99.90;;;;;;5056771;28;20129;-90
2023/01/09 11:43:24;;;;;;;4.75;1.77;;;4.70;99.90;;;;;;5056858;28;20045;-90
2023/01/09 11:45:56;;;;;;;7.18;2.05;;;4.90;99.90;;;;;;5056556;28;20371;-90
2023/01/09 11:48:30;;;;;;;8.10;1.98;;;4.80;99.90;;;;;;4971843;28;20551;-91
2023/01/09 11:50:58;;;;;;;7.05;2.13;;;4.80;99.90;;;;;;5056759;28;20038;-91
2023/01/09 11:53:25;;;;;;;14.15;2.13;;;4.80;99.90;;;;;;4975111;28;20038;-90
2023/01/09 11:56:02;;;;;;;7.00;1.75;;;4.90;99.90;;;;;;4971077;28;20065;-90
2023/01/09 11:58:33;;;;;;;14.63;2.45;;;5.10;99.90;;;;;;5059068;28;20038;-91
2023/01/09 12:08:25;;;;;;;6.43;2.55;;;5.20;99.90;;;;;;4975880;28;20060;-90
2023/01/09 12:11:07;;;;;;;7.75;1.33;;;5.10;99.90;;;;;;5058830;28;20039;-91
2023/01/09 12:13:55;;;;;;;4.43;2.00;;;4.80;99.90;;;;;;5076231;28;20080;-92
2023/01/09 12:16:32;;;;;;;2.85;1.50;;;4.70;99.90;;;;;;5076106;28;20126;-92
2023/01/09 12:19:16;;;;;;;6.05;2.28;;;4.50;99.90;;;;;;5059157;28;20031;-92
2023/01/09 12:22:07;;;;;;;8.18;2.10;;;4.50;99.90;;;;;;5059198;28;20031;-90
2023/01/09 12:24:42;;;;;;;10.00;1.95;;;4.50;99.90;;;;;;5058954;28;20429;-90
2023/01/09 12:27:30;;;;;;;11.32;3.47;;;4.50;99.90;;;;;;5058757;28;20409;-93
2023/01/09 12:30:21;;;;;;;12.00;2.05;;;4.50;99.90;;;;;;4974179;28;20039;-90
2023/01/09 12:32:58;;;;;;;4.90;1.90;;;4.40;99.90;;;;;;5059304;28;20031;-90
2023/01/09 12:35:44;;;;;;;4.13;1.60;;;4.50;99.90;;;;;;5058873;28;20123;-91
2023/01/09 12:38:38;;;;;;;9.68;3.50;;;4.50;99.90;;;;;;5059045;28;20034;-91
2023/01/09 12:41:09;;;;;;;13.48;2.30;;;4.40;99.90;;;;;;5058895;28;20039;-91
2023/01/09 12:43:50;;;;;;;;;;;4.50;99.90;;;;;;5059154;28;20509;-92
2023/01/09 12:46:22;;;;;;;24.38;6.25;;;4.60;99.90;;;;;;4974280;28;19911;-92
2023/01/09 12:49:06;;;;;;;5.20;1.98;;;4.50;99.90;;;;;;5058719;28;20039;-91
2023/01/09 12:51:55;;;;;;;7.15;1.65;;;4.60;99.90;;;;;;5058741;28;20390;-91
2023/01/09 12:54:26;;;;;;;2.83;1.50;;;4.70;99.90;;;;;;5058660;28;20069;-91
2023/01/09 12:56:56;;;;;;;5.73;1.93;;;4.70;99.90;;;;;;5059450;28;20031;-90
2023/01/09 12:59:49;;;;;;;4.38;1.30;;;4.70;99.90;;;;;;5075687;28;20034;-91
2023/01/09 13:02:17;;;;;;;3.80;2.53;;;4.70;99.90;;;;;;5058867;28;20035;-90
2023/01/09 13:04:53;;;;;;;6.68;2.20;;;4.60;99.90;;;;;;5058043;28;20038;-90
2023/01/09 13:07:34;;;;;;;14.32;3.20;;;4.60;99.90;;;;;;5058540;28;20034;-90
2023/01/09 13:10:41;;;;;;;12.52;3.45;;;4.60;99.90;;;;;;5058251;28;20035;-91
2023/01/09 13:13:19;;;;;;;9.88;4.15;;;4.50;99.90;;;;;;4965224;28;20039;-91
2023/01/09 13:15:53;;;;;;;8.75;4.22;;;4.40;99.90;;;;;;5058585;28;20035;-91
2023/01/09 13:18:30;;;;;;;12.18;4.43;;;4.50;99.90;;;;;;5058079;28;20065;-90
2023/01/09 13:20:56;;;;;;;10.07;3.80;;;4.40;99.90;;;;;;4973201;28;20505;-91
2023/01/09 13:23:56;;;;;;;13.00;4.70;;;4.50;99.90;;;;;;4973207;28;20023;-91
2023/01/09 13:26:30;;;;;;;12.40;4.75;;;4.40;99.90;;;;;;5057803;28;20026;-92
2023/01/09 13:29:02;;;;;;;13.68;5.40;;;4.50;99.90;;;;;;5057975;28;20112;-91
2023/01/09 13:31:46;;;;;;;8.40;4.43;;;4.60;99.90;;;;;;5057631;28;20122;-92
2023/01/09 13:34:21;;;;;;;15.35;4.53;;;4.60;99.90;;;;;;5057941;28;20042;-90
2023/01/09 13:36:53;;;;;;;13.85;5.60;;;4.80;99.90;;;;;;5074609;28;20599;-91